createdAt,value
2018-03-17T00:01:35.778Z,95528.78
2018-03-17T00:04:04.272Z,95527.90
2018-03-17T00:06:33.336Z,95525.37
2018-03-17T00:09:03.237Z,95521.55
2018-03-17T00:11:31.807Z,95519.36
2018-03-17T00:14:00.836Z,95513.95
2018-03-17T00:16:29.206Z,95514.72
2018-03-17T00:18:58.680Z,95506.38
2018-03-17T00:21:29.216Z,95511.39
2018-03-17T00:23:57.631Z,95509.69
2018-03-17T00:26:25.972Z,95500.40
2018-03-17T00:28:55.340Z,95497.02
2018-03-17T00:31:23.862Z,95488.63
2018-03-17T00:33:52.205Z,95483.56
2018-03-17T00:36:23.090Z,95484.83
2018-03-17T00:38:51.723Z,95484.81
2018-03-17T00:41:20.008Z,95483.13
2018-03-17T00:43:50.024Z,95474.34
2018-03-17T00:46:18.429Z,95471.38
2018-03-17T00:48:48.554Z,95470.95
2018-03-17T00:51:17.208Z,95468.47
2018-03-17T00:53:45.888Z,95469.28
2018-03-17T00:56:14.245Z,95465.08
2018-03-17T00:58:42.535Z,95469.22
2018-03-17T01:01:10.914Z,95460.44
2018-03-17T01:03:39.213Z,95468.74
2018-03-17T01:06:07.516Z,95470.31
2018-03-17T01:08:36.375Z,95468.16
2018-03-17T01:11:09.269Z,95475.72
2018-03-17T01:13:39.553Z,95472.44
2018-03-17T01:16:10.185Z,95466.17
2018-03-17T01:18:43.370Z,95462.17
2018-03-17T01:21:11.782Z,95465.84
2018-03-17T01:23:42.744Z,95467.06
2018-03-17T01:26:12.042Z,95457.41
2018-03-17T01:28:42.092Z,95458.68
2018-03-17T01:31:10.483Z,95450.31
2018-03-17T01:33:38.744Z,95439.86
2018-03-17T01:36:07.050Z,95440.69
2018-03-17T01:38:35.382Z,95428.17
2018-03-17T01:41:04.598Z,95421.88
2018-03-17T01:43:33.040Z,95416.86
2018-03-17T01:46:01.626Z,95416.44
2018-03-17T01:48:29.966Z,95421.69
2018-03-17T01:50:58.231Z,95413.30
2018-03-17T01:53:26.648Z,95410.44
2018-03-17T01:55:55.670Z,95408.37
2018-03-17T01:58:24.004Z,95406.27
2018-03-17T02:00:52.276Z,95405.84
2018-03-17T02:03:20.587Z,95407.02
2018-03-17T02:05:48.898Z,95395.70
2018-03-17T02:08:17.428Z,95392.36
2018-03-17T02:10:45.780Z,95386.92
2018-03-17T02:13:14.061Z,95392.81
2018-03-17T02:15:42.352Z,95387.80
2018-03-17T02:18:10.918Z,95380.18
2018-03-17T02:20:39.236Z,95370.08
2018-03-17T02:23:07.610Z,95373.46
2018-03-17T02:25:35.886Z,95370.61
2018-03-17T02:28:04.225Z,95364.85
2018-03-17T02:30:33.522Z,95360.73
2018-03-17T02:33:01.933Z,95354.41
2018-03-17T02:35:30.338Z,95361.03
2018-03-17T02:37:58.632Z,95362.68
2018-03-17T02:40:26.883Z,95356.05
2018-03-17T02:42:59.872Z,95354.41
2018-03-17T02:45:28.189Z,95351.42
2018-03-17T02:47:56.727Z,95356.79
2018-03-17T02:50:25.180Z,95349.66
2018-03-17T02:52:53.551Z,95354.29
2018-03-17T02:55:23.584Z,95354.70
2018-03-17T02:57:53.589Z,95361.35
2018-03-17T03:00:21.919Z,95358.46
2018-03-17T03:02:50.209Z,95355.98
2018-03-17T03:05:18.487Z,95356.43
2018-03-17T03:07:46.823Z,95361.47
2018-03-17T03:10:15.135Z,95359.83
2018-03-17T03:12:45.292Z,95359.02
2018-03-17T03:15:14.873Z,95357.41
2018-03-17T03:17:43.151Z,95357.02
2018-03-17T03:20:11.430Z,95356.66
2018-03-17T03:22:41.501Z,95351.69
2018-03-17T03:25:09.935Z,95352.14
2018-03-17T03:27:38.229Z,95351.64
2018-03-17T03:30:06.540Z,95356.66
2018-03-17T03:32:34.817Z,95348.36
2018-03-17T03:35:03.119Z,95352.95
2018-03-17T03:37:31.497Z,95346.66
2018-03-17T03:40:02.234Z,95347.44
2018-03-17T03:42:30.751Z,95350.77
2018-03-17T03:44:59.225Z,95344.45
2018-03-17T03:47:30.201Z,95347.38
2018-03-17T03:49:58.792Z,95337.75
2018-03-17T03:52:27.198Z,95339.84
2018-03-17T03:54:58.135Z,95335.64
2018-03-17T03:57:26.577Z,95327.61
2018-03-17T03:59:55.562Z,95324.27
2018-03-17T04:02:23.849Z,95324.73
2018-03-17T04:04:52.139Z,95317.61
2018-03-17T04:07:23.171Z,95312.19
2018-03-17T04:09:51.619Z,95302.98
2018-03-17T04:12:19.941Z,95308.85
2018-03-17T04:14:48.223Z,95303.87
2018-03-17T04:17:16.497Z,95296.78
2018-03-17T04:19:44.875Z,95293.07
2018-03-17T04:22:14.202Z,95293.50
2018-03-17T04:24:42.555Z,95284.73
2018-03-17T04:27:10.843Z,95294.33
2018-03-17T04:29:39.124Z,95293.03
2018-03-17T04:32:09.073Z,95293.03
2018-03-17T04:34:40.013Z,95302.19
2018-03-17T04:37:08.423Z,95297.60
2018-03-17T04:39:36.807Z,95298.41
2018-03-17T04:42:05.125Z,95289.20
2018-03-17T04:44:33.391Z,95281.25
2018-03-17T04:47:01.825Z,95289.66
2018-03-17T04:49:30.123Z,95281.31
2018-03-17T04:51:58.451Z,95286.81
2018-03-17T04:54:26.781Z,95280.59
2018-03-17T04:56:55.314Z,95278.53
2018-03-17T04:59:23.659Z,95283.97
2018-03-17T05:01:52.036Z,95282.71
2018-03-17T05:04:20.434Z,95278.96
2018-03-17T05:06:50.993Z,95277.17
2018-03-17T05:09:20.917Z,95275.48
2018-03-17T05:11:51.004Z,95272.55
2018-03-17T05:14:19.339Z,95263.77
2018-03-17T05:16:47.654Z,95267.55
2018-03-17T05:19:16.083Z,95266.28
2018-03-17T05:21:44.415Z,95271.34
2018-03-17T05:24:12.783Z,95264.27
2018-03-17T05:26:41.069Z,95259.69
2018-03-17T05:29:09.412Z,95260.09
2018-03-17T05:31:37.757Z,95253.41
2018-03-17T05:34:07.637Z,95256.79
2018-03-17T05:36:36.097Z,95245.95
2018-03-17T05:39:04.562Z,95246.38
2018-03-17T05:41:32.873Z,95257.19
2018-03-17T05:44:01.393Z,95249.61
2018-03-17T05:46:29.745Z,95250.01
2018-03-17T05:48:58.067Z,95249.93
2018-03-17T05:51:29.057Z,95255.34
2018-03-17T05:53:57.633Z,95254.06
2018-03-17T05:56:26.675Z,95255.33
2018-03-17T05:58:54.982Z,95241.98
2018-03-17T06:01:23.344Z,95249.12
2018-03-17T06:03:51.697Z,95242.03
2018-03-17T06:06:22.191Z,95242.08
2018-03-17T06:08:51.570Z,95239.59
2018-03-17T06:11:19.850Z,95237.95
2018-03-17T06:13:48.179Z,95241.31
2018-03-17T06:16:16.534Z,95242.60
2018-03-17T06:18:47.000Z,95240.12
2018-03-17T06:21:16.547Z,95238.89
2018-03-17T06:23:44.876Z,95236.81
2018-03-17T06:26:13.236Z,95234.77
2018-03-17T06:28:44.130Z,95238.16
2018-03-17T06:31:12.481Z,95231.52
2018-03-17T06:33:40.861Z,95225.28
2018-03-17T06:36:11.460Z,95224.09
2018-03-17T06:38:40.035Z,95222.05
2018-03-17T06:41:08.429Z,95219.59
2018-03-17T06:43:36.911Z,95226.74
2018-03-17T06:46:05.260Z,95219.26
2018-03-17T06:48:37.139Z,95217.23
2018-03-17T06:51:05.473Z,95206.78
2018-03-17T06:53:35.758Z,95209.77
2018-03-17T06:56:07.829Z,95206.42
2018-03-17T06:58:38.517Z,95212.28
2018-03-17T07:01:09.634Z,95213.57
2018-03-17T07:03:38.128Z,95207.75
2018-03-17T07:06:11.756Z,95207.34
2018-03-17T07:08:41.714Z,95204.02
2018-03-17T07:11:10.046Z,95197.34
2018-03-17T07:13:38.416Z,95196.11
2018-03-17T07:16:08.593Z,95189.84
2018-03-17T07:18:36.954Z,95195.31
2018-03-17T07:21:05.370Z,95196.59
2018-03-17T07:23:35.013Z,95191.63
2018-03-17T07:26:05.760Z,95192.05
2018-03-17T07:28:36.248Z,95183.75
2018-03-17T07:31:04.898Z,95179.53
2018-03-17T07:33:33.181Z,95184.98
2018-03-17T07:36:01.506Z,95185.42
2018-03-17T07:38:29.890Z,95184.16
2018-03-17T07:40:58.292Z,95184.19
2018-03-17T07:43:26.652Z,95177.91
2018-03-17T07:45:55.047Z,95180.03
2018-03-17T07:48:23.403Z,95177.52
2018-03-17T07:50:53.546Z,95178.36
2018-03-17T07:53:21.958Z,95179.21
2018-03-17T07:55:54.272Z,95177.14
2018-03-17T07:58:25.561Z,95175.08
2018-03-17T08:00:55.533Z,95174.23
2018-03-17T08:03:24.668Z,95172.98
2018-03-17T08:05:54.723Z,95175.93
2018-03-17T08:08:23.269Z,95176.34
2018-03-17T08:10:51.677Z,95166.69
2018-03-17T08:13:20.034Z,95169.20
2018-03-17T08:15:48.442Z,95167.13
2018-03-17T08:18:16.792Z,95164.21
2018-03-17T08:20:45.298Z,95155.39
2018-03-17T08:23:13.771Z,95157.09
2018-03-17T08:25:42.164Z,95153.73
2018-03-17T08:28:10.472Z,95153.30
2018-03-17T08:30:38.846Z,95149.13
2018-03-17T08:33:07.227Z,95148.30
2018-03-17T08:35:35.608Z,95144.95
2018-03-17T08:38:04.188Z,95145.36
2018-03-17T08:40:32.947Z,95149.13
2018-03-17T08:43:05.899Z,95143.67
2018-03-17T08:45:34.239Z,95143.67
2018-03-17T08:48:02.630Z,95147.02
2018-03-17T08:50:31.118Z,95146.19
2018-03-17T08:53:01.267Z,95138.22
2018-03-17T08:55:32.076Z,95139.06
2018-03-17T08:58:00.558Z,95141.99
2018-03-17T09:00:31.449Z,95143.69
2018-03-17T09:02:59.866Z,95132.36
2018-03-17T09:05:29.839Z,95134.03
2018-03-17T09:27:18.605Z,95143.68
2018-03-17T09:29:47.008Z,95135.29
2018-03-17T09:32:15.540Z,95137.39
2018-03-17T09:34:43.955Z,95136.95
2018-03-17T09:37:12.343Z,95138.66
2018-03-17T09:39:40.751Z,95139.48
2018-03-17T09:42:11.814Z,95135.70
2018-03-17T09:44:41.125Z,95136.53
2018-03-17T09:47:11.097Z,95138.63
2018-03-17T09:49:39.526Z,95133.17
2018-03-17T09:52:07.907Z,95139.06
2018-03-17T09:54:36.289Z,95139.47
2018-03-17T09:57:04.633Z,95139.06
2018-03-17T09:59:33.009Z,95139.89
2018-03-17T10:02:01.382Z,95136.14
2018-03-17T10:04:29.881Z,95136.55
2018-03-17T10:06:58.279Z,95125.23
2018-03-17T10:09:32.393Z,95121.88
2018-03-17T10:25:00.910Z,95100.53
2018-03-17T10:27:29.318Z,95108.91
2018-03-17T10:29:57.609Z,95102.20
2018-03-17T10:32:27.782Z,95101.38
2018-03-17T10:34:56.143Z,95095.92
2018-03-17T10:37:24.487Z,95100.09
2018-03-17T10:39:53.705Z,95099.27
2018-03-17T10:42:22.307Z,95094.67
2018-03-17T10:44:51.363Z,95089.22
2018-03-17T10:47:21.435Z,95083.34
2018-03-17T10:49:50.590Z,95084.16
2018-03-17T10:52:20.557Z,95079.98
2018-03-17T10:54:49.904Z,95073.71
2018-03-17T10:57:18.301Z,95074.56
2018-03-17T10:59:46.660Z,95067.01
2018-03-17T11:02:15.759Z,95062.83
2018-03-17T11:04:46.744Z,95063.66
2018-03-17T11:07:15.118Z,95064.08
2018-03-17T11:09:45.213Z,95058.20
2018-03-17T11:12:15.204Z,95049.83
2018-03-17T11:14:43.594Z,95058.22
2018-03-17T11:17:11.951Z,95058.20
2018-03-17T11:19:42.849Z,95058.64
2018-03-17T11:22:11.222Z,95055.27
2018-03-17T11:24:39.555Z,95061.14
2018-03-17T11:27:07.903Z,95076.63
2018-03-17T11:29:36.274Z,95059.05
2018-03-17T11:32:05.750Z,95043.98
2018-03-17T11:34:34.271Z,95047.31
2018-03-17T11:37:02.599Z,95045.20
2018-03-17T11:39:31.761Z,95042.70
2018-03-17T11:42:01.757Z,95037.67
2018-03-17T11:44:30.153Z,95038.08
2018-03-17T11:47:00.207Z,95038.10
2018-03-17T11:49:28.617Z,95036.82
2018-03-17T11:51:56.941Z,95038.91
2018-03-17T11:54:25.553Z,95030.11
2018-03-17T11:56:54.280Z,95030.55
2018-03-17T11:59:22.643Z,95031.81
2018-03-17T12:01:51.084Z,95019.66
2018-03-17T12:04:19.426Z,95023.86
2018-03-17T12:06:47.901Z,95017.55
2018-03-17T12:09:16.206Z,95017.98
2018-03-17T12:11:45.340Z,95016.72
2018-03-17T12:14:15.307Z,95012.97
2018-03-17T12:16:43.639Z,95007.09
2018-03-17T12:19:11.990Z,95006.69
2018-03-17T12:21:42.144Z,95002.08
2018-03-17T12:24:10.679Z,94997.45
2018-03-17T12:26:41.031Z,94998.72
2018-03-17T12:29:13.244Z,94999.56
2018-03-17T12:31:43.812Z,95014.25
2018-03-17T12:34:14.665Z,94995.80
2018-03-17T12:36:44.835Z,94994.98
2018-03-17T12:39:13.249Z,94996.64
2018-03-17T12:41:41.750Z,94994.56
2018-03-17T12:44:10.202Z,94989.53
2018-03-17T12:46:38.634Z,95002.09
2018-03-17T12:49:07.014Z,94996.62
2018-03-17T12:51:37.226Z,94998.28
2018-03-17T12:54:05.636Z,94992.02
2018-03-17T12:56:35.016Z,94986.58
2018-03-17T12:59:03.341Z,94986.16
2018-03-17T13:01:31.970Z,94983.66
2018-03-17T13:04:00.500Z,94985.72
2018-03-17T13:06:28.792Z,94987.41
2018-03-17T13:08:57.171Z,94997.02
2018-03-17T13:11:26.245Z,94998.27
2018-03-17T13:13:55.538Z,94997.44
2018-03-17T13:16:24.132Z,94999.94
2018-03-17T13:18:53.238Z,94999.53
2018-03-17T13:21:22.295Z,95002.47
2018-03-17T13:23:50.645Z,95003.30
2018-03-17T13:26:20.608Z,95009.61
2018-03-17T13:28:49.091Z,95007.89
2018-03-17T13:31:17.432Z,95001.61
2018-03-17T13:33:46.027Z,95001.19
2018-03-17T13:36:26.122Z,94994.06
2018-03-17T13:38:54.543Z,94992.81
2018-03-17T13:41:23.015Z,94998.27
2018-03-17T13:43:51.715Z,95001.60
2018-03-17T13:46:20.072Z,94998.66
2018-03-17T13:48:50.030Z,94995.29
2018-03-17T13:51:18.455Z,94994.03
2018-03-17T13:53:48.518Z,94994.45
2018-03-17T13:56:16.986Z,94984.84
2018-03-17T13:58:47.137Z,94981.48
2018-03-17T14:03:49.669Z,94979.80
2018-03-17T14:06:18.049Z,94983.97
2018-03-17T14:08:46.441Z,94974.75
2018-03-17T14:11:14.808Z,94966.80
2018-03-17T14:13:43.156Z,94973.09
2018-03-17T14:16:12.299Z,94968.48
2018-03-17T14:18:42.538Z,94969.70
2018-03-17T14:21:11.891Z,94978.05
2018-03-17T14:23:40.222Z,94975.53
2018-03-17T14:26:08.523Z,94976.38
2018-03-17T14:28:39.033Z,94977.23
2018-03-17T14:31:07.790Z,94968.47
2018-03-17T14:33:38.278Z,94983.48
2018-03-17T14:36:07.323Z,94983.09
2018-03-17T14:38:38.739Z,94976.38
2018-03-17T14:41:07.175Z,94975.55
2018-03-17T14:43:35.480Z,94970.55
2018-03-17T14:46:03.994Z,94968.91
2018-03-17T14:48:32.476Z,94968.50
2018-03-17T14:51:00.925Z,94963.06
2018-03-17T14:53:29.398Z,94963.06
2018-03-17T14:55:57.714Z,94960.12
2018-03-17T14:58:26.790Z,94961.77
2018-03-17T15:00:55.157Z,94967.20
2018-03-17T15:03:25.206Z,94964.17
2018-03-17T15:05:53.581Z,94960.84
2018-03-17T15:08:24.218Z,94968.36
2018-03-17T15:10:52.649Z,94968.31
2018-03-17T15:13:21.202Z,94962.87
2018-03-17T15:15:49.609Z,94969.52
2018-03-17T15:18:19.023Z,94968.70
2018-03-17T15:20:50.002Z,94971.20
2018-03-17T15:23:19.662Z,94974.98
2018-03-17T15:25:48.158Z,94969.50
2018-03-17T15:28:17.293Z,94976.17
2018-03-17T15:30:47.613Z,94979.14
2018-03-17T15:33:22.044Z,94981.61
2018-03-17T15:35:50.604Z,94976.17
2018-03-17T15:38:18.925Z,94977.02
2018-03-17T15:40:48.972Z,94979.52
2018-03-17T15:43:18.554Z,94984.96
2018-03-17T15:45:46.856Z,94990.79
2018-03-17T15:48:15.184Z,94986.99
2018-03-17T15:50:43.522Z,94982.83
2018-03-17T15:53:14.528Z,94986.98
2018-03-17T15:55:44.809Z,94984.91
2018-03-17T15:58:14.057Z,94986.56
2018-03-17T16:00:42.472Z,94989.50
2018-03-17T16:03:10.802Z,94997.45
2018-03-17T16:05:39.134Z,94987.84
2018-03-17T16:08:10.240Z,95004.91
2018-03-17T16:10:38.650Z,94990.30
2018-03-17T16:13:07.080Z,94998.24
2018-03-17T16:15:35.402Z,95006.17
2018-03-17T16:18:04.818Z,95002.33
2018-03-17T16:20:34.770Z,94999.34
2018-03-17T16:23:03.186Z,95000.11
2018-03-17T16:25:33.280Z,95003.00
2018-03-17T16:28:01.622Z,95002.11
2018-03-17T16:30:29.952Z,95001.25
2018-03-17T16:32:58.299Z,95003.77
2018-03-17T16:35:27.348Z,95001.67
2018-03-17T16:37:58.225Z,94997.89
2018-03-17T16:40:26.606Z,95004.14
2018-03-17T16:42:56.625Z,94997.47
2018-03-17T16:45:25.039Z,94999.50
2018-03-17T16:47:53.374Z,95006.55
2018-03-17T16:50:23.396Z,95010.24
2018-03-17T16:52:51.781Z,95015.18
2018-03-17T16:55:20.143Z,95015.18
2018-03-17T16:57:48.488Z,95022.68
2018-03-17T17:00:19.483Z,95024.69
2018-03-17T17:02:49.285Z,95025.10
2018-03-17T17:05:17.677Z,95024.23
2018-03-17T17:07:46.159Z,95019.63
2018-03-17T17:10:16.250Z,95020.41
2018-03-17T17:12:45.062Z,95028.33
2018-03-17T17:15:13.379Z,95026.70
2018-03-17T17:17:41.709Z,95029.63
2018-03-17T17:20:10.008Z,95033.79
2018-03-17T17:22:38.439Z,95027.97
2018-03-17T17:25:06.810Z,95037.54
2018-03-17T17:27:35.326Z,95037.53
2018-03-17T17:30:03.942Z,95043.30
2018-03-17T17:32:33.864Z,95039.91
2018-03-17T17:35:02.275Z,95047.34
2018-03-17T17:37:30.803Z,95048.16
2018-03-17T17:39:59.147Z,95052.30
2018-03-17T17:42:29.515Z,95053.56
2018-03-17T17:44:59.608Z,95063.15
2018-03-17T17:47:27.992Z,95066.45
2018-03-17T17:49:56.346Z,95061.45
2018-03-17T17:52:24.955Z,95059.33
2018-03-17T17:54:53.300Z,95068.83
2018-03-17T17:57:21.644Z,95069.14
2018-03-17T17:59:50.848Z,95074.56
2018-03-17T18:02:19.172Z,95072.84
2018-03-17T18:04:47.535Z,95072.37
2018-03-17T18:07:15.911Z,95081.92
2018-03-17T18:09:45.887Z,95083.13
2018-03-17T18:12:14.303Z,95099.67
2018-03-17T18:14:43.396Z,95092.02
2018-03-17T18:17:12.466Z,95094.53
2018-03-17T18:19:41.134Z,95092.79
2018-03-17T18:22:09.488Z,95096.98
2018-03-17T18:24:38.078Z,95094.89
2018-03-17T18:27:08.989Z,95103.16
2018-03-17T18:29:39.963Z,95102.59
2018-03-17T18:32:09.158Z,95101.70
2018-03-17T18:34:38.218Z,95102.55
2018-03-17T18:37:06.577Z,95109.97
2018-03-17T18:39:37.007Z,95107.53
2018-03-17T18:42:05.351Z,95112.97
2018-03-17T18:44:37.676Z,95114.66
2018-03-17T18:47:08.865Z,95120.91
2018-03-17T18:49:37.300Z,95121.77
2018-03-17T18:52:06.597Z,95123.02
2018-03-17T18:54:35.042Z,95122.58
2018-03-17T18:57:05.126Z,95119.66
2018-03-17T18:59:36.133Z,95128.84
2018-03-17T19:02:04.494Z,95126.77
2018-03-17T19:04:35.623Z,95127.21
2018-03-17T19:07:04.682Z,95125.95
2018-03-17T19:09:34.776Z,95132.99
2018-03-17T19:12:04.993Z,95128.02
2018-03-17T19:14:33.414Z,95126.33
2018-03-17T19:17:01.752Z,95125.08
2018-03-17T19:19:32.672Z,95128.76
2018-03-17T19:22:03.345Z,95132.89
2018-03-17T19:24:54.001Z,95129.08
2018-03-17T20:06:48.071Z,95148.31
2018-03-17T20:09:16.439Z,95151.98
2018-03-17T20:11:44.904Z,95152.74
2018-03-17T20:14:14.483Z,95149.39
2018-03-17T20:16:44.714Z,95148.13
2018-03-17T20:19:17.147Z,95147.69
2018-03-17T20:21:45.684Z,95149.66
2018-03-17T20:24:14.948Z,95153.83
2018-03-17T20:26:45.910Z,95149.28
2018-03-17T20:29:14.572Z,95146.28
2018-03-17T20:34:18.076Z,95151.98
2018-03-17T20:36:48.597Z,95152.83
2018-03-17T20:39:17.358Z,95148.69
2018-03-17T20:41:45.752Z,95155.32
2018-03-17T20:44:14.291Z,95161.03
2018-03-17T20:46:42.660Z,95155.95
2018-03-17T20:49:11.010Z,95152.23
2018-03-17T20:51:40.926Z,95155.52
2018-03-17T20:54:10.041Z,95160.44
2018-03-17T20:56:38.429Z,95174.16
2018-03-17T20:59:06.918Z,95156.33
2018-03-17T21:01:35.445Z,95162.91
2018-03-17T21:04:04.749Z,95164.13
2018-03-17T21:06:33.098Z,95163.28
2018-03-17T21:09:01.430Z,95161.29
2018-03-17T21:11:29.993Z,95163.78
2018-03-17T21:13:58.334Z,95163.33
2018-03-17T21:16:26.676Z,95156.59
2018-03-17T21:18:56.871Z,95159.89
2018-03-17T21:21:26.999Z,95163.09
2018-03-17T21:23:56.135Z,95165.62
2018-03-17T21:26:24.530Z,95165.14
2018-03-17T21:28:52.887Z,95166.36
2018-03-17T21:31:21.968Z,95165.12
2018-03-17T21:33:50.340Z,95165.52
2018-03-17T21:36:18.698Z,95172.58
2018-03-17T21:38:47.068Z,95177.11
2018-03-17T21:41:17.988Z,95173.66
2018-03-17T21:43:46.485Z,95180.26
2018-03-17T21:46:14.869Z,95173.58
2018-03-17T21:48:44.797Z,95182.25
2018-03-17T21:51:13.234Z,95184.77
2018-03-17T21:53:41.608Z,95179.33
2018-03-17T21:56:10.702Z,95175.16
2018-03-17T21:58:40.784Z,95181.03
2018-03-17T22:01:10.962Z,95175.59
2018-03-17T22:03:39.287Z,95177.20
2018-03-17T22:06:08.473Z,95172.20
2018-03-17T22:08:36.847Z,95168.83
2018-03-17T22:11:05.132Z,95169.51
2018-03-17T22:13:36.473Z,95170.98
2018-03-17T22:16:04.799Z,95164.36
2018-03-17T22:18:34.056Z,95168.92
2018-03-17T22:21:03.132Z,95170.98
2018-03-17T22:23:33.197Z,95163.88
2018-03-17T22:26:01.553Z,95172.52
2018-03-17T22:28:30.653Z,95174.55
2018-03-17T22:30:58.994Z,95164.56
2018-03-17T22:33:28.099Z,95161.55
2018-03-17T22:35:58.039Z,95177.30
2018-03-17T22:38:26.457Z,95177.30
2018-03-17T22:40:56.390Z,95176.41
2018-03-17T22:43:24.893Z,95166.81
2018-03-17T22:45:53.245Z,95170.98
2018-03-17T22:48:21.696Z,95173.95
2018-03-17T22:50:50.096Z,95172.31
2018-03-17T22:53:18.466Z,95173.08
2018-03-17T22:55:47.004Z,95176.39
2018-03-17T22:58:17.091Z,95183.89
2018-03-17T23:00:48.090Z,95178.85
2018-03-17T23:03:18.208Z,95177.94
2018-03-17T23:05:46.537Z,95178.73
2018-03-17T23:08:14.915Z,95176.23
2018-03-17T23:10:44.608Z,95177.15
2018-03-17T23:13:12.924Z,95175.42
2018-03-17T23:15:43.044Z,95173.72
2018-03-17T23:18:13.044Z,95174.06
2018-03-17T23:20:43.127Z,95173.51
2018-03-17T23:23:11.628Z,95176.03
2018-03-17T23:25:39.932Z,95180.16
2018-03-17T23:30:42.832Z,95175.27
2018-03-17T23:33:11.194Z,95181.98
2018-03-17T23:35:39.564Z,95184.87
2018-03-17T23:38:08.664Z,95183.53
2018-03-17T23:40:37.048Z,95189.00
2018-03-17T23:43:05.428Z,95184.78
2018-03-17T23:45:33.800Z,95184.78
2018-03-17T23:48:02.100Z,95186.08
2018-03-17T23:50:31.186Z,95186.91
2018-03-17T23:52:59.486Z,95196.87
2018-03-17T23:55:27.886Z,95183.63
2018-03-17T23:57:58.964Z,95193.95
